sensor_id;sensor_type;location;lat;lon;timestamp;pressure;altitude;pressure_sealevel;temperature
19061;BMP280;9663;48.996;8.334;2023-08-07T00:00:40;100196.19;;;20.17
19061;BMP280;9663;48.996;8.334;2023-08-07T00:03:05;100197.94;;;20.16
19061;BMP280;9663;48.996;8.334;2023-08-07T00:05:31;100200.56;;;20.15
19061;BMP280;9663;48.996;8.334;2023-08-07T00:07:57;100200.56;;;20.15
19061;BMP280;9663;48.996;8.334;2023-08-07T00:10:22;100206.56;;;20.15
19061;BMP280;9663;48.996;8.334;2023-08-07T00:12:50;100204.88;;;20.14
19061;BMP280;9663;48.996;8.334;2023-08-07T00:15:15;100203.16;;;20.15
19061;BMP280;9663;48.996;8.334;2023-08-07T00:17:41;100194.56;;;20.14
19061;BMP280;9663;48.996;8.334;2023-08-07T00:20:08;100205.78;;;20.13
19061;BMP280;9663;48.996;8.334;2023-08-07T00:22:34;100204.03;;;20.14
19061;BMP280;9663;48.996;8.334;2023-08-07T00:24:59;100204.88;;;20.14
19061;BMP280;9663;48.996;8.334;2023-08-07T00:27:25;100211.69;;;20.15
19061;BMP280;9663;48.996;8.334;2023-08-07T00:29:51;100211.63;;;20.17
19061;BMP280;9663;48.996;8.334;2023-08-07T00:32:17;100206.41;;;20.18
19061;BMP280;9663;48.996;8.334;2023-08-07T00:34:42;100209.06;;;20.17
19061;BMP280;9663;48.996;8.334;2023-08-07T00:37:08;100208.25;;;20.16
19061;BMP280;9663;48.996;8.334;2023-08-07T00:39:34;100209.94;;;20.16
19061;BMP280;9663;48.996;8.334;2023-08-07T00:41:59;100207.31;;;20.17
19061;BMP280;9663;48.996;8.334;2023-08-07T00:44:25;100212.53;;;20.16
19061;BMP280;9663;48.996;8.334;2023-08-07T00:46:51;100210.88;;;20.15
19061;BMP280;9663;48.996;8.334;2023-08-07T00:49:19;100211.75;;;20.14
19061;BMP280;9663;48.996;8.334;2023-08-07T00:51:45;100211.94;;;20.10
19061;BMP280;9663;48.996;8.334;2023-08-07T00:54:15;100209.47;;;20.08
19061;BMP280;9663;48.996;8.334;2023-08-07T00:56:43;100219.03;;;20.05
19061;BMP280;9663;48.996;8.334;2023-08-07T00:59:09;100215.69;;;20.03
19061;BMP280;9663;48.996;8.334;2023-08-07T01:01:35;100209.91;;;19.98
19061;BMP280;9663;48.996;8.334;2023-08-07T01:04:01;100219.44;;;19.96
19061;BMP280;9663;48.996;8.334;2023-08-07T01:06:27;100208.38;;;19.94
19061;BMP280;9663;48.996;8.334;2023-08-07T01:08:53;100215.41;;;19.90
19061;BMP280;9663;48.996;8.334;2023-08-07T01:11:48;100209.00;;;19.79
19061;BMP280;9663;48.996;8.334;2023-08-07T01:14:37;100209.19;;;19.74
19061;BMP280;9663;48.996;8.334;2023-08-07T01:17:16;100208.34;;;19.74
19061;BMP280;9663;48.996;8.334;2023-08-07T01:19:43;100219.53;;;19.73
19061;BMP280;9663;48.996;8.334;2023-08-07T01:22:16;100221.28;;;19.72
19061;BMP280;9663;48.996;8.334;2023-08-07T01:24:45;100223.91;;;19.71
19061;BMP280;9663;48.996;8.334;2023-08-07T01:29:59;100222.34;;;19.67
19061;BMP280;9663;48.996;8.334;2023-08-07T01:33:07;100220.06;;;19.61
19061;BMP280;9663;48.996;8.334;2023-08-07T01:35:43;100226.63;;;19.68
19061;BMP280;9663;48.996;8.334;2023-08-07T01:38:11;100216.19;;;19.71
19061;BMP280;9663;48.996;8.334;2023-08-07T01:40:39;100223.97;;;19.69
19061;BMP280;9663;48.996;8.334;2023-08-07T01:43:06;100229.13;;;19.69
19061;BMP280;9663;48.996;8.334;2023-08-07T01:45:31;100228.34;;;19.68
19061;BMP280;9663;48.996;8.334;2023-08-07T01:47:57;100225.84;;;19.66
19061;BMP280;9663;48.996;8.334;2023-08-07T01:50:24;100232.78;;;19.64
19061;BMP280;9663;48.996;8.334;2023-08-07T01:52:50;100220.06;;;19.61
19061;BMP280;9663;48.996;8.334;2023-08-07T01:55:18;100225.38;;;19.57
19061;BMP280;9663;48.996;8.334;2023-08-07T01:57:44;100230.69;;;19.52
19061;BMP280;9663;48.996;8.334;2023-08-07T02:00:10;100233.41;;;19.49
19061;BMP280;9663;48.996;8.334;2023-08-07T02:02:37;100229.34;;;19.44
19061;BMP280;9663;48.996;8.334;2023-08-07T02:05:03;100220.97;;;19.39
19061;BMP280;9663;48.996;8.334;2023-08-07T02:07:30;100222.00;;;19.35
19061;BMP280;9663;48.996;8.334;2023-08-07T02:09:57;100236.78;;;19.30
19061;BMP280;9663;48.996;8.334;2023-08-07T02:12:22;100232.72;;;19.25
19061;BMP280;9663;48.996;8.334;2023-08-07T02:14:48;100246.56;;;19.21
19061;BMP280;9663;48.996;8.334;2023-08-07T02:17:14;100228.75;;;19.16
19061;BMP280;9663;48.996;8.334;2023-08-07T02:19:40;100240.84;;;19.14
19061;BMP280;9663;48.996;8.334;2023-08-07T02:22:05;100238.44;;;19.10
19061;BMP280;9663;48.996;8.334;2023-08-07T02:24:31;100229.94;;;19.08
19061;BMP280;9663;48.996;8.334;2023-08-07T02:26:57;100232.63;;;19.05
19061;BMP280;9663;48.996;8.334;2023-08-07T02:29:23;100225.91;;;19.02
19061;BMP280;9663;48.996;8.334;2023-08-07T02:31:49;100225.94;;;19.01
19061;BMP280;9663;48.996;8.334;2023-08-07T02:34:14;100224.38;;;18.97
19061;BMP280;9663;48.996;8.334;2023-08-07T02:36:40;100229.63;;;18.94
19061;BMP280;9663;48.996;8.334;2023-08-07T02:39:07;100226.28;;;18.92
19061;BMP280;9663;48.996;8.334;2023-08-07T02:41:33;100222.13;;;18.88
19061;BMP280;9663;48.996;8.334;2023-08-07T02:43:58;100220.53;;;18.85
19061;BMP280;9663;48.996;8.334;2023-08-07T02:46:24;100225.72;;;18.84
19061;BMP280;9663;48.996;8.334;2023-08-07T02:48:50;100227.59;;;18.81
19061;BMP280;9663;48.996;8.334;2023-08-07T02:51:15;100225.94;;;18.78
19061;BMP280;9663;48.996;8.334;2023-08-07T02:53:41;100238.03;;;18.76
19061;BMP280;9663;48.996;8.334;2023-08-07T02:56:07;100227.81;;;18.75
19061;BMP280;9663;48.996;8.334;2023-08-07T02:58:32;100228.78;;;18.72
19061;BMP280;9663;48.996;8.334;2023-08-07T03:01:04;100229.69;;;18.70
19061;BMP280;9663;48.996;8.334;2023-08-07T03:03:32;100231.50;;;18.68
19061;BMP280;9663;48.996;8.334;2023-08-07T03:05:57;100233.34;;;18.64
19061;BMP280;9663;48.996;8.334;2023-08-07T03:08:23;100228.31;;;18.61
19061;BMP280;9663;48.996;8.334;2023-08-07T03:10:54;100236.06;;;18.60
19061;BMP280;9663;48.996;8.334;2023-08-07T03:13:21;100233.56;;;18.58
19061;BMP280;9663;48.996;8.334;2023-08-07T03:15:47;100235.34;;;18.56
19061;BMP280;9663;48.996;8.334;2023-08-07T03:18:18;100237.09;;;18.56
19061;BMP280;9663;48.996;8.334;2023-08-07T03:20:44;100242.28;;;18.54
19061;BMP280;9663;48.996;8.334;2023-08-07T03:23:10;100243.22;;;18.52
19061;BMP280;9663;48.996;8.334;2023-08-07T03:25:36;100239.88;;;18.50
19061;BMP280;9663;48.996;8.334;2023-08-07T03:28:02;100235.66;;;18.47
19061;BMP280;9663;48.996;8.334;2023-08-07T03:30:28;100243.47;;;18.46
19061;BMP280;9663;48.996;8.334;2023-08-07T03:32:54;100250.31;;;18.45
19061;BMP280;9663;48.996;8.334;2023-08-07T03:35:20;100254.59;;;18.45
19061;BMP280;9663;48.996;8.334;2023-08-07T03:37:45;100247.78;;;18.44
19061;BMP280;9663;48.996;8.334;2023-08-07T03:40:11;100252.81;;;18.47
19061;BMP280;9663;48.996;8.334;2023-08-07T03:42:37;100245.88;;;18.49
19061;BMP280;9663;48.996;8.334;2023-08-07T03:45:03;100250.91;;;18.52
19061;BMP280;9663;48.996;8.334;2023-08-07T03:47:28;100249.06;;;18.55
19061;BMP280;9663;48.996;8.334;2023-08-07T03:49:54;100242.09;;;18.59
19061;BMP280;9663;48.996;8.334;2023-08-07T03:52:19;100248.00;;;18.62
19061;BMP280;9663;48.996;8.334;2023-08-07T03:54:46;100253.84;;;18.66
19061;BMP280;9663;48.996;8.334;2023-08-07T03:57:11;100251.13;;;18.69
19061;BMP280;9663;48.996;8.334;2023-08-07T03:59:37;100261.31;;;18.72
19061;BMP280;9663;48.996;8.334;2023-08-07T04:02:03;100261.97;;;18.77
19061;BMP280;9663;48.996;8.334;2023-08-07T04:04:29;100261.75;;;18.83
19061;BMP280;9663;48.996;8.334;2023-08-07T04:06:54;100250.47;;;18.86
19061;BMP280;9663;48.996;8.334;2023-08-07T04:09:20;100255.44;;;18.91
19061;BMP280;9663;48.996;8.334;2023-08-07T04:11:46;100260.53;;;18.92
19061;BMP280;9663;48.996;8.334;2023-08-07T04:14:11;100255.31;;;18.94
19061;BMP280;9663;48.996;8.334;2023-08-07T04:16:37;100258.63;;;18.97
19061;BMP280;9663;48.996;8.334;2023-08-07T04:19:03;100266.28;;;18.99
19061;BMP280;9663;48.996;8.334;2023-08-07T04:21:30;100261.13;;;18.99
19061;BMP280;9663;48.996;8.334;2023-08-07T04:23:56;100260.19;;;19.01
19061;BMP280;9663;48.996;8.334;2023-08-07T04:26:21;100265.28;;;19.03
19061;BMP280;9663;48.996;8.334;2023-08-07T04:28:47;100265.34;;;19.01
19061;BMP280;9663;48.996;8.334;2023-08-07T04:31:13;100260.19;;;19.01
19061;BMP280;9663;48.996;8.334;2023-08-07T04:33:39;100267.03;;;19.02
19061;BMP280;9663;48.996;8.334;2023-08-07T04:36:04;100261.94;;;19.01
19061;BMP280;9663;48.996;8.334;2023-08-07T04:38:30;100269.53;;;19.04
19061;BMP280;9663;48.996;8.334;2023-08-07T04:40:56;100268.63;;;19.05
19061;BMP280;9663;48.996;8.334;2023-08-07T04:43:22;100266.84;;;19.07
19061;BMP280;9663;48.996;8.334;2023-08-07T04:45:48;100274.50;;;19.08
19061;BMP280;9663;48.996;8.334;2023-08-07T04:48:14;100266.72;;;19.10
19061;BMP280;9663;48.996;8.334;2023-08-07T04:50:41;100273.47;;;19.12
19061;BMP280;9663;48.996;8.334;2023-08-07T04:53:07;100269.97;;;19.15
19061;BMP280;9663;48.996;8.334;2023-08-07T04:55:33;100268.13;;;19.18
19061;BMP280;9663;48.996;8.334;2023-08-07T04:57:58;100282.63;;;19.19
19061;BMP280;9663;48.996;8.334;2023-08-07T05:00:25;100277.44;;;19.21
19061;BMP280;9663;48.996;8.334;2023-08-07T05:02:51;100282.53;;;19.22
19061;BMP280;9663;48.996;8.334;2023-08-07T05:05:17;100277.31;;;19.24
19061;BMP280;9663;48.996;8.334;2023-08-07T05:07:49;100286.72;;;19.25
19061;BMP280;9663;48.996;8.334;2023-08-07T05:10:15;100290.13;;;19.25
19061;BMP280;9663;48.996;8.334;2023-08-07T05:12:41;100290.00;;;19.28
19061;BMP280;9663;48.996;8.334;2023-08-07T05:15:07;100291.72;;;19.27
19061;BMP280;9663;48.996;8.334;2023-08-07T05:17:33;100297.66;;;19.29
19061;BMP280;9663;48.996;8.334;2023-08-07T05:19:58;100298.44;;;19.31
19061;BMP280;9663;48.996;8.334;2023-08-07T05:22:24;100301.72;;;19.35
19061;BMP280;9663;48.996;8.334;2023-08-07T05:24:49;100302.44;;;19.38
19061;BMP280;9663;48.996;8.334;2023-08-07T05:27:16;100307.47;;;19.41
19061;BMP280;9663;48.996;8.334;2023-08-07T05:29:41;100305.56;;;19.46
19061;BMP280;9663;48.996;8.334;2023-08-07T05:32:14;100318.25;;;19.51
19061;BMP280;9663;48.996;8.334;2023-08-07T05:34:40;100307.75;;;19.55
19061;BMP280;9663;48.996;8.334;2023-08-07T05:37:07;100326.41;;;19.60
19061;BMP280;9663;48.996;8.334;2023-08-07T05:39:34;100330.56;;;19.64
19061;BMP280;9663;48.996;8.334;2023-08-07T05:42:00;100330.41;;;19.67
19061;BMP280;9663;48.996;8.334;2023-08-07T05:44:26;100334.56;;;19.71
19061;BMP280;9663;48.996;8.334;2023-08-07T05:46:52;100335.28;;;19.74
19061;BMP280;9663;48.996;8.334;2023-08-07T05:49:19;100328.22;;;19.79
19061;BMP280;9663;48.996;8.334;2023-08-07T05:51:44;100339.06;;;19.87
19061;BMP280;9663;48.996;8.334;2023-08-07T05:54:10;100341.25;;;19.96
19061;BMP280;9663;48.996;8.334;2023-08-07T05:56:38;100337.69;;;20.00
19061;BMP280;9663;48.996;8.334;2023-08-07T05:59:04;100334.91;;;20.05
19061;BMP280;9663;48.996;8.334;2023-08-07T06:01:29;100340.84;;;20.07
19061;BMP280;9663;48.996;8.334;2023-08-07T06:03:58;100344.13;;;20.10
19061;BMP280;9663;48.996;8.334;2023-08-07T06:06:25;100347.41;;;20.13
19061;BMP280;9663;48.996;8.334;2023-08-07T06:08:52;100345.66;;;20.14
19061;BMP280;9663;48.996;8.334;2023-08-07T06:11:17;100349.06;;;20.14
19061;BMP280;9663;48.996;8.334;2023-08-07T06:13:43;100349.06;;;20.14
19061;BMP280;9663;48.996;8.334;2023-08-07T06:16:09;100342.25;;;20.13
19061;BMP280;9663;48.996;8.334;2023-08-07T06:18:36;100353.56;;;20.10
19061;BMP280;9663;48.996;8.334;2023-08-07T06:21:02;100364.78;;;20.09
19061;BMP280;9663;48.996;8.334;2023-08-07T06:23:29;100350.16;;;20.09
19061;BMP280;9663;48.996;8.334;2023-08-07T06:25:55;100351.78;;;20.12
19061;BMP280;9663;48.996;8.334;2023-08-07T06:28:22;100351.56;;;20.16
19061;BMP280;9663;48.996;8.334;2023-08-07T06:30:48;100358.22;;;20.21
19061;BMP280;9663;48.996;8.334;2023-08-07T06:33:13;100362.16;;;20.30
19061;BMP280;9663;48.996;8.334;2023-08-07T06:35:40;100363.44;;;20.40
19061;BMP280;9663;48.996;8.334;2023-08-07T06:38:08;100358.66;;;20.51
19061;BMP280;9663;48.996;8.334;2023-08-07T06:40:35;100354.72;;;20.62
19061;BMP280;9663;48.996;8.334;2023-08-07T06:43:01;100363.63;;;20.75
19061;BMP280;9663;48.996;8.334;2023-08-07T06:45:26;100367.53;;;20.83
19061;BMP280;9663;48.996;8.334;2023-08-07T06:47:52;100367.22;;;20.91
19061;BMP280;9663;48.996;8.334;2023-08-07T06:50:18;100369.53;;;20.97
19061;BMP280;9663;48.996;8.334;2023-08-07T06:52:43;100372.75;;;21.01
19061;BMP280;9663;48.996;8.334;2023-08-07T06:55:09;100375.97;;;21.06
19061;BMP280;9663;48.996;8.334;2023-08-07T06:57:35;100370.53;;;21.12
19061;BMP280;9663;48.996;8.334;2023-08-07T07:00:00;100377.94;;;21.20
19061;BMP280;9663;48.996;8.334;2023-08-07T07:02:26;100382.22;;;21.19
19061;BMP280;9663;48.996;8.334;2023-08-07T07:04:52;100381.19;;;21.23
19061;BMP280;9663;48.996;8.334;2023-08-07T07:07:17;100388.81;;;21.26
19061;BMP280;9663;48.996;8.334;2023-08-07T07:09:43;100384.34;;;21.30
19061;BMP280;9663;48.996;8.334;2023-08-07T07:12:09;100383.22;;;21.35
19061;BMP280;9663;48.996;8.334;2023-08-07T07:14:34;100382.19;;;21.39
19061;BMP280;9663;48.996;8.334;2023-08-07T07:17:00;100376.81;;;21.43
19061;BMP280;9663;48.996;8.334;2023-08-07T07:19:26;100362.97;;;21.46
19061;BMP280;9663;48.996;8.334;2023-08-07T07:21:51;100377.31;;;21.51
19061;BMP280;9663;48.996;8.334;2023-08-07T07:24:18;100389.25;;;21.54
19061;BMP280;9663;48.996;8.334;2023-08-07T07:26:44;100377.09;;;21.56
19061;BMP280;9663;48.996;8.334;2023-08-07T07:29:09;100371.72;;;21.60
19061;BMP280;9663;48.996;8.334;2023-08-07T07:31:35;100369.63;;;21.68
19061;BMP280;9663;48.996;8.334;2023-08-07T07:34:01;100371.78;;;21.77
19061;BMP280;9663;48.996;8.334;2023-08-07T07:36:27;100374.91;;;21.84
19061;BMP280;9663;48.996;8.334;2023-08-07T07:38:53;100371.09;;;21.90
19061;BMP280;9663;48.996;8.334;2023-08-07T07:41:18;100367.31;;;21.97
19061;BMP280;9663;48.996;8.334;2023-08-07T07:43:44;100398.09;;;22.02
19061;BMP280;9663;48.996;8.334;2023-08-07T07:46:10;100391.94;;;22.04
19061;BMP280;9663;48.996;8.334;2023-08-07T07:48:35;100390.03;;;22.08
19061;BMP280;9663;48.996;8.334;2023-08-07T07:51:02;100400.16;;;22.12
19061;BMP280;9663;48.996;8.334;2023-08-07T07:53:29;100408.50;;;22.17
19061;BMP280;9663;48.996;8.334;2023-08-07T07:55:55;100402.16;;;22.24
19061;BMP280;9663;48.996;8.334;2023-08-07T07:58:21;100406.22;;;22.30
19061;BMP280;9663;48.996;8.334;2023-08-07T08:00:47;100405.13;;;22.33
19061;BMP280;9663;48.996;8.334;2023-08-07T08:03:13;100419.66;;;22.36
19061;BMP280;9663;48.996;8.334;2023-08-07T08:05:39;100398.13;;;22.35
19061;BMP280;9663;48.996;8.334;2023-08-07T08:08:06;100409.25;;;22.37
19061;BMP280;9663;48.996;8.334;2023-08-07T08:10:35;100416.69;;;22.43
19061;BMP280;9663;48.996;8.334;2023-08-07T08:13:01;100417.81;;;22.55
19061;BMP280;9663;48.996;8.334;2023-08-07T08:15:30;100409.63;;;22.64
19061;BMP280;9663;48.996;8.334;2023-08-07T08:17:55;100415.66;;;22.79
19061;BMP280;9663;48.996;8.334;2023-08-07T08:20:21;100410.69;;;22.93
19061;BMP280;9663;48.996;8.334;2023-08-07T08:22:47;100407.38;;;23.07
19061;BMP280;9663;48.996;8.334;2023-08-07T08:25:13;100402.38;;;23.19
19061;BMP280;9663;48.996;8.334;2023-08-07T08:27:39;100408.06;;;23.25
19061;BMP280;9663;48.996;8.334;2023-08-07T08:30:06;100408.06;;;23.25
19061;BMP280;9663;48.996;8.334;2023-08-07T08:32:32;100407.97;;;23.27
19061;BMP280;9663;48.996;8.334;2023-08-07T08:34:58;100396.56;;;23.31
19061;BMP280;9663;48.996;8.334;2023-08-07T08:37:24;100409.31;;;23.34
19061;BMP280;9663;48.996;8.334;2023-08-07T08:39:50;100409.16;;;23.37
19061;BMP280;9663;48.996;8.334;2023-08-07T08:42:16;100410.00;;;23.37
19061;BMP280;9663;48.996;8.334;2023-08-07T08:44:55;100396.81;;;23.42
19061;BMP280;9663;48.996;8.334;2023-08-07T08:47:25;100407.34;;;23.54
19061;BMP280;9663;48.996;8.334;2023-08-07T08:50:01;100400.94;;;23.61
19061;BMP280;9663;48.996;8.334;2023-08-07T08:52:30;100399.19;;;23.77
19061;BMP280;9663;48.996;8.334;2023-08-07T08:54:57;100410.34;;;23.93
19061;BMP280;9663;48.996;8.334;2023-08-07T08:57:25;100403.41;;;24.08
19061;BMP280;9663;48.996;8.334;2023-08-07T08:59:52;100407.72;;;24.23
19061;BMP280;9663;48.996;8.334;2023-08-07T09:02:17;100407.88;;;24.36
19061;BMP280;9663;48.996;8.334;2023-08-07T09:04:45;100408.63;;;24.38
19061;BMP280;9663;48.996;8.334;2023-08-07T09:07:15;100419.00;;;24.38
19061;BMP280;9663;48.996;8.334;2023-08-07T09:09:44;100429.19;;;24.41
19061;BMP280;9663;48.996;8.334;2023-08-07T09:12:20;100410.84;;;24.44
19061;BMP280;9663;48.996;8.334;2023-08-07T09:14:54;100408.31;;;24.57
19061;BMP280;9663;48.996;8.334;2023-08-07T09:17:24;100423.13;;;24.69
19061;BMP280;9663;48.996;8.334;2023-08-07T09:19:53;100407.97;;;24.77
19061;BMP280;9663;48.996;8.334;2023-08-07T09:22:19;100409.16;;;24.86
19061;BMP280;9663;48.996;8.334;2023-08-07T09:24:46;100417.25;;;24.95
19061;BMP280;9663;48.996;8.334;2023-08-07T09:27:12;100426.91;;;25.07
19061;BMP280;9663;48.996;8.334;2023-08-07T09:29:40;100412.38;;;25.18
19061;BMP280;9663;48.996;8.334;2023-08-07T09:32:12;100418.38;;;25.33
19061;BMP280;9663;48.996;8.334;2023-08-07T09:34:42;100414.09;;;25.45
19061;BMP280;9663;48.996;8.334;2023-08-07T09:37:09;100417.13;;;25.52
19061;BMP280;9663;48.996;8.334;2023-08-07T09:39:36;100415.00;;;25.58
19061;BMP280;9663;48.996;8.334;2023-08-07T09:42:03;100412.06;;;25.64
19061;BMP280;9663;48.996;8.334;2023-08-07T09:44:39;100416.88;;;25.70
19061;BMP280;9663;48.996;8.334;2023-08-07T09:47:18;100422.38;;;25.78
19061;BMP280;9663;48.996;8.334;2023-08-07T09:49:45;100415.13;;;25.83
19061;BMP280;9663;48.996;8.334;2023-08-07T09:52:14;100414.50;;;25.79
19061;BMP280;9663;48.996;8.334;2023-08-07T09:54:41;100415.63;;;25.76
19061;BMP280;9663;48.996;8.334;2023-08-07T09:57:07;100420.00;;;25.75
19061;BMP280;9663;48.996;8.334;2023-08-07T09:59:34;100415.53;;;25.77
19061;BMP280;9663;48.996;8.334;2023-08-07T10:02:01;100416.09;;;25.82
19061;BMP280;9663;48.996;8.334;2023-08-07T10:04:30;100410.09;;;25.94
19061;BMP280;9663;48.996;8.334;2023-08-07T10:06:57;100400.59;;;26.07
19061;BMP280;9663;48.996;8.334;2023-08-07T10:09:24;100408.19;;;26.10
19061;BMP280;9663;48.996;8.334;2023-08-07T10:11:51;100409.22;;;26.07
19061;BMP280;9663;48.996;8.334;2023-08-07T10:14:18;100402.28;;;26.08
19061;BMP280;9663;48.996;8.334;2023-08-07T10:16:45;100405.59;;;26.10
19061;BMP280;9663;48.996;8.334;2023-08-07T10:19:11;100405.50;;;26.11
19061;BMP280;9663;48.996;8.334;2023-08-07T10:21:39;100400.94;;;26.15
19061;BMP280;9663;48.996;8.334;2023-08-07T10:24:08;100405.06;;;26.17
19061;BMP280;9663;48.996;8.334;2023-08-07T10:26:37;100414.06;;;26.25
19061;BMP280;9663;48.996;8.334;2023-08-07T10:29:10;100401.59;;;26.30
19061;BMP280;9663;48.996;8.334;2023-08-07T10:31:37;100398.63;;;26.36
19061;BMP280;9663;48.996;8.334;2023-08-07T10:34:04;100400.06;;;26.40
19061;BMP280;9663;48.996;8.334;2023-08-07T10:36:35;100403.94;;;26.47
19061;BMP280;9663;48.996;8.334;2023-08-07T10:39:12;100405.19;;;26.54
19061;BMP280;9663;48.996;8.334;2023-08-07T10:41:46;100401.88;;;26.64
19061;BMP280;9663;48.996;8.334;2023-08-07T10:44:24;100402.28;;;26.71
19061;BMP280;9663;48.996;8.334;2023-08-07T10:46:55;100404.38;;;26.78
19061;BMP280;9663;48.996;8.334;2023-08-07T10:49:40;100398.97;;;26.69
19061;BMP280;9663;48.996;8.334;2023-08-07T10:52:12;100394.50;;;26.59
19061;BMP280;9663;48.996;8.334;2023-08-07T10:54:44;100415.56;;;26.42
19061;BMP280;9663;48.996;8.334;2023-08-07T10:57:15;100400.16;;;26.26
19061;BMP280;9663;48.996;8.334;2023-08-07T11:02:28;100404.47;;;25.87
19061;BMP280;9663;48.996;8.334;2023-08-07T11:04:55;100398.88;;;25.67
19061;BMP280;9663;48.996;8.334;2023-08-07T11:07:29;100405.28;;;25.48
19061;BMP280;9663;48.996;8.334;2023-08-07T11:09:57;100410.50;;;25.34
19061;BMP280;9663;48.996;8.334;2023-08-07T11:12:28;100413.09;;;25.20
19061;BMP280;9663;48.996;8.334;2023-08-07T11:14:57;100414.03;;;25.05
19061;BMP280;9663;48.996;8.334;2023-08-07T11:17:29;100431.31;;;24.91
19061;BMP280;9663;48.996;8.334;2023-08-07T11:19:58;100412.31;;;24.77
19061;BMP280;9663;48.996;8.334;2023-08-07T11:22:24;100421.75;;;24.64
19061;BMP280;9663;48.996;8.334;2023-08-07T11:24:51;100427.38;;;24.56
19061;BMP280;9663;48.996;8.334;2023-08-07T11:27:16;100424.13;;;24.53
19061;BMP280;9663;48.996;8.334;2023-08-07T11:29:47;100423.28;;;24.52
19061;BMP280;9663;48.996;8.334;2023-08-07T11:32:14;100420.31;;;24.58
19061;BMP280;9663;48.996;8.334;2023-08-07T11:34:40;100419.06;;;24.65
19061;BMP280;9663;48.996;8.334;2023-08-07T11:37:06;100417.69;;;24.74
19061;BMP280;9663;48.996;8.334;2023-08-07T11:39:31;100416.13;;;24.85
19061;BMP280;9663;48.996;8.334;2023-08-07T11:41:57;100400.41;;;25.02
19061;BMP280;9663;48.996;8.334;2023-08-07T11:44:23;100420.50;;;25.12
19061;BMP280;9663;48.996;8.334;2023-08-07T11:46:50;100418.28;;;25.20
19061;BMP280;9663;48.996;8.334;2023-08-07T11:49:17;100419.41;;;25.30
19061;BMP280;9663;48.996;8.334;2023-08-07T11:51:43;100415.75;;;25.46
19061;BMP280;9663;48.996;8.334;2023-08-07T11:54:14;100411.47;;;25.59
19061;BMP280;9663;48.996;8.334;2023-08-07T11:56:41;100415.72;;;25.74
19061;BMP280;9663;48.996;8.334;2023-08-07T11:59:08;100416.44;;;25.90
19061;BMP280;9663;48.996;8.334;2023-08-07T12:01:38;100410.06;;;26.08
19061;BMP280;9663;48.996;8.334;2023-08-07T12:04:09;100412.25;;;26.40
19061;BMP280;9663;48.996;8.334;2023-08-07T12:06:36;100413.44;;;26.61
19061;BMP280;9663;48.996;8.334;2023-08-07T12:09:05;100412.69;;;26.71
19061;BMP280;9663;48.996;8.334;2023-08-07T12:11:38;100405.41;;;26.76
19061;BMP280;9663;48.996;8.334;2023-08-07T12:14:04;100401.19;;;26.87
19061;BMP280;9663;48.996;8.334;2023-08-07T12:16:36;100405.53;;;26.99
19061;BMP280;9663;48.996;8.334;2023-08-07T12:19:03;100398.84;;;27.32
19061;BMP280;9663;48.996;8.334;2023-08-07T12:21:29;100392.59;;;28.06
19061;BMP280;9663;48.996;8.334;2023-08-07T12:23:59;100384.53;;;29.10
19061;BMP280;9663;48.996;8.334;2023-08-07T12:26:25;100391.53;;;29.53
19061;BMP280;9663;48.996;8.334;2023-08-07T12:28:50;100380.13;;;29.96
19061;BMP280;9663;48.996;8.334;2023-08-07T12:31:17;100381.97;;;30.47
19061;BMP280;9663;48.996;8.334;2023-08-07T12:33:43;100384.06;;;30.53
19061;BMP280;9663;48.996;8.334;2023-08-07T12:36:08;100386.19;;;30.27
19061;BMP280;9663;48.996;8.334;2023-08-07T12:38:34;100377.91;;;29.91
19061;BMP280;9663;48.996;8.334;2023-08-07T12:40:59;100381.75;;;29.66
19061;BMP280;9663;48.996;8.334;2023-08-07T12:43:25;100375.88;;;29.42
19061;BMP280;9663;48.996;8.334;2023-08-07T12:45:52;100380.59;;;29.15
19061;BMP280;9663;48.996;8.334;2023-08-07T12:48:18;100395.34;;;29.05
19061;BMP280;9663;48.996;8.334;2023-08-07T12:50:45;100399.41;;;29.31
19061;BMP280;9663;48.996;8.334;2023-08-07T12:53:11;100379.66;;;30.22
19061;BMP280;9663;48.996;8.334;2023-08-07T12:55:36;100374.56;;;31.02
19061;BMP280;9663;48.996;8.334;2023-08-07T12:58:02;100385.44;;;31.36
19061;BMP280;9663;48.996;8.334;2023-08-07T13:00:28;100363.31;;;31.20
19061;BMP280;9663;48.996;8.334;2023-08-07T13:02:54;100379.63;;;30.73
19061;BMP280;9663;48.996;8.334;2023-08-07T13:05:22;100374.25;;;30.14
19061;BMP280;9663;48.996;8.334;2023-08-07T13:07:48;100382.50;;;29.57
19061;BMP280;9663;48.996;8.334;2023-08-07T13:10:16;100387.16;;;29.10
19061;BMP280;9663;48.996;8.334;2023-08-07T13:12:44;100386.41;;;28.86
19061;BMP280;9663;48.996;8.334;2023-08-07T13:15:13;100386.91;;;28.80
19061;BMP280;9663;48.996;8.334;2023-08-07T13:17:41;100395.19;;;28.96
19061;BMP280;9663;48.996;8.334;2023-08-07T13:20:08;100385.03;;;29.26
19061;BMP280;9663;48.996;8.334;2023-08-07T13:22:38;100373.50;;;29.92
19061;BMP280;9663;48.996;8.334;2023-08-07T13:25:05;100386.22;;;30.48
19061;BMP280;9663;48.996;8.334;2023-08-07T13:27:32;100380.63;;;31.02
19061;BMP280;9663;48.996;8.334;2023-08-07T13:29:58;100365.41;;;31.84
19061;BMP280;9663;48.996;8.334;2023-08-07T13:32:25;100368.53;;;32.90
19061;BMP280;9663;48.996;8.334;2023-08-07T13:34:51;100353.25;;;33.30
19061;BMP280;9663;48.996;8.334;2023-08-07T13:37:17;100365.84;;;33.09
19061;BMP280;9663;48.996;8.334;2023-08-07T13:39:43;100369.88;;;32.49
19061;BMP280;9663;48.996;8.334;2023-08-07T13:42:08;100375.47;;;31.69
19061;BMP280;9663;48.996;8.334;2023-08-07T13:44:36;100384.00;;;30.84
19061;BMP280;9663;48.996;8.334;2023-08-07T13:47:04;100389.28;;;30.01
19061;BMP280;9663;48.996;8.334;2023-08-07T13:49:30;100400.59;;;29.27
19061;BMP280;9663;48.996;8.334;2023-08-07T13:51:55;100404.53;;;28.66
19061;BMP280;9663;48.996;8.334;2023-08-07T13:54:21;100416.00;;;28.18
19061;BMP280;9663;48.996;8.334;2023-08-07T13:56:48;100404.88;;;27.81
19061;BMP280;9663;48.996;8.334;2023-08-07T13:59:13;100425.28;;;27.51
19061;BMP280;9663;48.996;8.334;2023-08-07T14:01:39;100425.91;;;27.54
19061;BMP280;9663;48.996;8.334;2023-08-07T14:04:05;100417.63;;;27.73
19061;BMP280;9663;48.996;8.334;2023-08-07T14:06:31;100407.53;;;27.92
19061;BMP280;9663;48.996;8.334;2023-08-07T14:08:56;100413.31;;;28.07
19061;BMP280;9663;48.996;8.334;2023-08-07T14:11:22;100415.00;;;28.08
19061;BMP280;9663;48.996;8.334;2023-08-07T14:13:51;100420.13;;;27.97